sensor_id;sensor_type;location;lat;lon;timestamp;pressure;altitude;pressure_sealevel;temperature;humidity
75157;BME280;63736;50.076;8.198;2024-02-28T00:00:08;99706.63;;;4.21;100.00
75157;BME280;63736;50.076;8.198;2024-02-28T00:01:52;99700.31;;;4.23;100.00
75157;BME280;63736;50.076;8.198;2024-02-28T00:03:23;99701.16;;;4.24;100.00
75157;BME280;63736;50.076;8.198;2024-02-28T00:04:53;99698.47;;;4.25;100.00
75157;BME280;63736;50.076;8.198;2024-02-28T00:06:24;99692.16;;;4.28;100.00
75157;BME280;63736;50.076;8.198;2024-02-28T00:07:54;99695.63;;;4.28;100.00
75157;BME280;63736;50.076;8.198;2024-02-28T00:09:24;99685.25;;;4.25;100.00
75157;BME280;63736;50.076;8.198;2024-02-28T00:10:55;99687.69;;;4.28;100.00
75157;BME280;63736;50.076;8.198;2024-02-28T00:12:25;99697.25;;;4.31;100.00
75157;BME280;63736;50.076;8.198;2024-02-28T00:13:56;99691.97;;;4.31;100.00
75157;BME280;63736;50.076;8.198;2024-02-28T00:15:26;99699.91;;;4.31;100.00
75157;BME280;63736;50.076;8.198;2024-02-28T00:16:56;99694.00;;;4.26;100.00
75157;BME280;63736;50.076;8.198;2024-02-28T00:18:26;99695.03;;;4.23;100.00
75157;BME280;63736;50.076;8.198;2024-02-28T00:19:57;99691.59;;;4.21;100.00
75157;BME280;63736;50.076;8.198;2024-02-28T00:21:27;99693.59;;;4.18;100.00
75157;BME280;63736;50.076;8.198;2024-02-28T00:22:57;99704.41;;;4.13;100.00
75157;BME280;63736;50.076;8.198;2024-02-28T00:24:27;99711.72;;;4.08;100.00
75157;BME280;63736;50.076;8.198;2024-02-28T00:25:58;99714.38;;;4.08;100.00
75157;BME280;63736;50.076;8.198;2024-02-28T00:27:28;99709.25;;;4.05;100.00
75157;BME280;63736;50.076;8.198;2024-02-28T00:28:58;99716.59;;;4.00;100.00
75157;BME280;63736;50.076;8.198;2024-02-28T00:30:29;99708.75;;;3.98;100.00
75157;BME280;63736;50.076;8.198;2024-02-28T00:31:59;99712.47;;;3.94;100.00
75157;BME280;63736;50.076;8.198;2024-02-28T00:33:29;99721.50;;;3.90;100.00
75157;BME280;63736;50.076;8.198;2024-02-28T00:34:59;99719.78;;;3.89;100.00
75157;BME280;63736;50.076;8.198;2024-02-28T00:36:30;99724.41;;;3.85;100.00
75157;BME280;63736;50.076;8.198;2024-02-28T00:38:01;99720.75;;;3.88;100.00
75157;BME280;63736;50.076;8.198;2024-02-28T00:39:31;99728.66;;;3.88;100.00
75157;BME280;63736;50.076;8.198;2024-02-28T00:41:01;99723.44;;;3.86;100.00
75157;BME280;63736;50.076;8.198;2024-02-28T00:42:32;99725.25;;;3.86;100.00
75157;BME280;63736;50.076;8.198;2024-02-28T00:44:02;99720.03;;;3.84;100.00
75157;BME280;63736;50.076;8.198;2024-02-28T00:45:33;99725.41;;;3.83;100.00
75157;BME280;63736;50.076;8.198;2024-02-28T00:47:03;99722.91;;;3.79;100.00
75157;BME280;63736;50.076;8.198;2024-02-28T00:48:33;99727.44;;;3.77;100.00
75157;BME280;63736;50.076;8.198;2024-02-28T00:50:04;99727.53;;;3.76;100.00
75157;BME280;63736;50.076;8.198;2024-02-28T00:51:34;99730.22;;;3.74;100.00
75157;BME280;63736;50.076;8.198;2024-02-28T00:53:06;99730.22;;;3.74;100.00
75157;BME280;63736;50.076;8.198;2024-02-28T00:54:37;99724.09;;;3.74;100.00
75157;BME280;63736;50.076;8.198;2024-02-28T00:56:07;99726.84;;;3.72;100.00
75157;BME280;63736;50.076;8.198;2024-02-28T00:57:37;99726.91;;;3.71;100.00
75157;BME280;63736;50.076;8.198;2024-02-28T00:59:07;99733.13;;;3.70;100.00
75157;BME280;63736;50.076;8.198;2024-02-28T01:00:41;99742.91;;;3.68;100.00
75157;BME280;63736;50.076;8.198;2024-02-28T01:02:11;99743.00;;;3.66;100.00
75157;BME280;63736;50.076;8.198;2024-02-28T01:03:41;99736.94;;;3.64;100.00
75157;BME280;63736;50.076;8.198;2024-02-28T01:05:12;99739.56;;;3.64;100.00
75157;BME280;63736;50.076;8.198;2024-02-28T01:06:42;99746.66;;;3.63;100.00
75157;BME280;63736;50.076;8.198;2024-02-28T01:08:12;99741.38;;;3.63;100.00
75157;BME280;63736;50.076;8.198;2024-02-28T01:09:42;99746.81;;;3.60;100.00
75157;BME280;63736;50.076;8.198;2024-02-28T01:11:13;99746.13;;;3.57;100.00
75157;BME280;63736;50.076;8.198;2024-02-28T01:12:43;99748.97;;;3.52;100.00
75157;BME280;63736;50.076;8.198;2024-02-28T01:14:13;99744.97;;;3.45;100.00
75157;BME280;63736;50.076;8.198;2024-02-28T01:15:44;99748.84;;;3.38;100.00
75157;BME280;63736;50.076;8.198;2024-02-28T01:17:14;99750.94;;;3.31;100.00
75157;BME280;63736;50.076;8.198;2024-02-28T01:18:44;99752.94;;;3.26;100.00
75157;BME280;63736;50.076;8.198;2024-02-28T01:20:14;99756.75;;;3.20;100.00
75157;BME280;63736;50.076;8.198;2024-02-28T01:21:45;99753.41;;;3.17;100.00
75157;BME280;63736;50.076;8.198;2024-02-28T01:23:15;99758.78;;;3.15;100.00
75157;BME280;63736;50.076;8.198;2024-02-28T01:24:46;99755.34;;;3.13;100.00
75157;BME280;63736;50.076;8.198;2024-02-28T01:26:16;99755.44;;;3.11;100.00
75157;BME280;63736;50.076;8.198;2024-02-28T01:27:46;99758.84;;;3.13;100.00
75157;BME280;63736;50.076;8.198;2024-02-28T01:29:16;99762.34;;;3.14;100.00
75157;BME280;63736;50.076;8.198;2024-02-28T01:30:48;99759.69;;;3.14;100.00
75157;BME280;63736;50.076;8.198;2024-02-28T01:32:18;99761.41;;;3.15;100.00
75157;BME280;63736;50.076;8.198;2024-02-28T01:33:48;99763.25;;;3.13;100.00
75157;BME280;63736;50.076;8.198;2024-02-28T01:35:19;99764.25;;;3.10;100.00
75157;BME280;63736;50.076;8.198;2024-02-28T01:36:49;99762.63;;;3.08;100.00
75157;BME280;63736;50.076;8.198;2024-02-28T01:38:19;99767.28;;;3.03;100.00
75157;BME280;63736;50.076;8.198;2024-02-28T01:39:49;99765.81;;;2.97;100.00
75157;BME280;63736;50.076;8.198;2024-02-28T01:41:20;99763.47;;;2.91;100.00
75157;BME280;63736;50.076;8.198;2024-02-28T01:42:50;99761.06;;;2.86;100.00
75157;BME280;63736;50.076;8.198;2024-02-28T01:44:21;99762.97;;;2.83;100.00
75157;BME280;63736;50.076;8.198;2024-02-28T01:45:51;99761.28;;;2.81;100.00
75157;BME280;63736;50.076;8.198;2024-02-28T01:47:22;99768.34;;;2.81;100.00
75157;BME280;63736;50.076;8.198;2024-02-28T01:48:53;99762.09;;;2.82;100.00
75157;BME280;63736;50.076;8.198;2024-02-28T01:50:24;99768.25;;;2.83;100.00
75157;BME280;63736;50.076;8.198;2024-02-28T01:51:55;99767.47;;;2.80;100.00
75157;BME280;63736;50.076;8.198;2024-02-28T01:53:26;99768.38;;;2.79;100.00
75157;BME280;63736;50.076;8.198;2024-02-28T01:54:57;99765.75;;;2.79;100.00
75157;BME280;63736;50.076;8.198;2024-02-28T01:56:28;99772.03;;;2.77;100.00
75157;BME280;63736;50.076;8.198;2024-02-28T01:57:58;99763.28;;;2.76;100.00
75157;BME280;63736;50.076;8.198;2024-02-28T01:59:29;99758.91;;;2.75;100.00
75157;BME280;63736;50.076;8.198;2024-02-28T02:01:00;99761.78;;;2.71;100.00
75157;BME280;63736;50.076;8.198;2024-02-28T02:02:31;99753.09;;;2.69;100.00
75157;BME280;63736;50.076;8.198;2024-02-28T02:04:03;99764.72;;;2.64;100.00
75157;BME280;63736;50.076;8.198;2024-02-28T02:05:33;99759.53;;;2.63;100.00
75157;BME280;63736;50.076;8.198;2024-02-28T02:07:04;99757.00;;;2.60;100.00
75157;BME280;63736;50.076;8.198;2024-02-28T02:08:36;99757.16;;;2.57;100.00
75157;BME280;63736;50.076;8.198;2024-02-28T02:10:07;99758.97;;;2.56;100.00
75157;BME280;63736;50.076;8.198;2024-02-28T02:11:40;99755.59;;;2.53;100.00
75157;BME280;63736;50.076;8.198;2024-02-28T02:13:10;99758.31;;;2.51;100.00
75157;BME280;63736;50.076;8.198;2024-02-28T02:14:41;99755.72;;;2.50;100.00
75157;BME280;63736;50.076;8.198;2024-02-28T02:16:11;99756.81;;;2.45;100.00
75157;BME280;63736;50.076;8.198;2024-02-28T02:17:41;99749.06;;;2.42;100.00
75157;BME280;63736;50.076;8.198;2024-02-28T02:19:11;99765.78;;;2.41;100.00
75157;BME280;63736;50.076;8.198;2024-02-28T02:20:50;99764.16;;;2.39;100.00
75157;BME280;63736;50.076;8.198;2024-02-28T02:22:26;99766.13;;;2.34;100.00
75157;BME280;63736;50.076;8.198;2024-02-28T02:23:57;99768.84;;;2.32;100.00
75157;BME280;63736;50.076;8.198;2024-02-28T02:25:27;99769.84;;;2.29;100.00
75157;BME280;63736;50.076;8.198;2024-02-28T02:26:58;99769.94;;;2.28;100.00
75157;BME280;63736;50.076;8.198;2024-02-28T02:28:28;99763.94;;;2.24;100.00
75157;BME280;63736;50.076;8.198;2024-02-28T02:29:59;99772.84;;;2.22;100.00
75157;BME280;63736;50.076;8.198;2024-02-28T02:31:29;99771.13;;;2.21;100.00
75157;BME280;63736;50.076;8.198;2024-02-28T02:33:00;99768.63;;;2.18;100.00
75157;BME280;63736;50.076;8.198;2024-02-28T02:34:30;99773.19;;;2.14;100.00
75157;BME280;63736;50.076;8.198;2024-02-28T02:36:01;99772.34;;;2.13;100.00
75157;BME280;63736;50.076;8.198;2024-02-28T02:37:31;99772.38;;;2.12;100.00
75157;BME280;63736;50.076;8.198;2024-02-28T02:39:01;99771.69;;;2.08;100.00
75157;BME280;63736;50.076;8.198;2024-02-28T02:40:32;99772.75;;;2.04;100.00
75157;BME280;63736;50.076;8.198;2024-02-28T02:42:02;99770.13;;;2.04;100.00
75157;BME280;63736;50.076;8.198;2024-02-28T02:43:33;99771.03;;;2.03;100.00
75157;BME280;63736;50.076;8.198;2024-02-28T02:45:03;99776.31;;;2.03;100.00
75157;BME280;63736;50.076;8.198;2024-02-28T02:46:34;99772.94;;;2.00;100.00
75157;BME280;63736;50.076;8.198;2024-02-28T02:48:04;99770.38;;;1.98;100.00
75157;BME280;63736;50.076;8.198;2024-02-28T02:49:34;99767.88;;;1.95;100.00
75157;BME280;63736;50.076;8.198;2024-02-28T02:51:05;99768.81;;;1.94;100.00
75157;BME280;63736;50.076;8.198;2024-02-28T02:52:35;99776.72;;;1.94;100.00
75157;BME280;63736;50.076;8.198;2024-02-28T02:54:06;99772.38;;;1.93;100.00
75157;BME280;63736;50.076;8.198;2024-02-28T02:55:36;99770.72;;;1.90;100.00
75157;BME280;63736;50.076;8.198;2024-02-28T02:57:06;99768.22;;;1.87;100.00
75157;BME280;63736;50.076;8.198;2024-02-28T02:58:37;99772.78;;;1.84;100.00
75157;BME280;63736;50.076;8.198;2024-02-28T03:00:10;99782.66;;;1.78;100.00
75157;BME280;63736;50.076;8.198;2024-02-28T03:01:40;99781.13;;;1.73;100.00
75157;BME280;63736;50.076;8.198;2024-02-28T03:03:11;99780.47;;;1.68;100.00
75157;BME280;63736;50.076;8.198;2024-02-28T03:04:41;99775.50;;;1.61;100.00
75157;BME280;63736;50.076;8.198;2024-02-28T03:06:11;99783.56;;;1.57;100.00
75157;BME280;63736;50.076;8.198;2024-02-28T03:07:42;99786.47;;;1.51;100.00
75157;BME280;63736;50.076;8.198;2024-02-28T03:09:12;99787.44;;;1.48;100.00
75157;BME280;63736;50.076;8.198;2024-02-28T03:10:42;99779.63;;;1.46;100.00
75157;BME280;63736;50.076;8.198;2024-02-28T03:12:12;99786.66;;;1.46;100.00
75157;BME280;63736;50.076;8.198;2024-02-28T03:13:43;99792.78;;;1.46;100.00
75157;BME280;63736;50.076;8.198;2024-02-28T03:15:13;99793.63;;;1.47;100.00
75157;BME280;63736;50.076;8.198;2024-02-28T03:16:43;99794.56;;;1.46;100.00
75157;BME280;63736;50.076;8.198;2024-02-28T03:18:14;99796.41;;;1.44;100.00
75157;BME280;63736;50.076;8.198;2024-02-28T03:19:45;99797.31;;;1.43;100.00
75157;BME280;63736;50.076;8.198;2024-02-28T03:21:15;99797.38;;;1.41;100.00
75157;BME280;63736;50.076;8.198;2024-02-28T03:22:47;99800.09;;;1.40;100.00
75157;BME280;63736;50.076;8.198;2024-02-28T03:24:17;99801.88;;;1.39;100.00
75157;BME280;63736;50.076;8.198;2024-02-28T03:25:47;99805.28;;;1.41;100.00
75157;BME280;63736;50.076;8.198;2024-02-28T03:27:18;99803.38;;;1.45;100.00
75157;BME280;63736;50.076;8.198;2024-02-28T03:28:48;99811.13;;;1.48;100.00
75157;BME280;63736;50.076;8.198;2024-02-28T03:30:18;99806.69;;;1.50;100.00
75157;BME280;63736;50.076;8.198;2024-02-28T03:31:49;99810.16;;;1.51;100.00
75157;BME280;63736;50.076;8.198;2024-02-28T03:33:19;99810.81;;;1.56;100.00
75157;BME280;63736;50.076;8.198;2024-02-28T03:34:49;99806.47;;;1.55;100.00
75157;BME280;63736;50.076;8.198;2024-02-28T03:36:20;99813.66;;;1.51;100.00
75157;BME280;63736;50.076;8.198;2024-02-28T03:37:50;99822.31;;;1.53;100.00
75157;BME280;63736;50.076;8.198;2024-02-28T03:39:20;99822.41;;;1.52;100.00
75157;BME280;63736;50.076;8.198;2024-02-28T03:40:51;99826.81;;;1.51;100.00
75157;BME280;63736;50.076;8.198;2024-02-28T03:42:21;99827.00;;;1.46;100.00
75157;BME280;63736;50.076;8.198;2024-02-28T03:43:51;99826.22;;;1.44;100.00
75157;BME280;63736;50.076;8.198;2024-02-28T03:45:22;99829.84;;;1.42;100.00
75157;BME280;63736;50.076;8.198;2024-02-28T03:46:53;99831.75;;;1.38;100.00
75157;BME280;63736;50.076;8.198;2024-02-28T03:48:23;99839.75;;;1.35;100.00
75157;BME280;63736;50.076;8.198;2024-02-28T03:49:53;99836.41;;;1.31;100.00
75157;BME280;63736;50.076;8.198;2024-02-28T03:51:27;99845.22;;;1.30;100.00
75157;BME280;63736;50.076;8.198;2024-02-28T03:52:57;99843.56;;;1.28;100.00
75157;BME280;63736;50.076;8.198;2024-02-28T03:54:27;99857.69;;;1.25;100.00
75157;BME280;63736;50.076;8.198;2024-02-28T03:55:58;99853.47;;;1.21;100.00
75157;BME280;63736;50.076;8.198;2024-02-28T03:57:28;99854.47;;;1.19;100.00
75157;BME280;63736;50.076;8.198;2024-02-28T03:58:59;99854.47;;;1.19;100.00
75157;BME280;63736;50.076;8.198;2024-02-28T04:00:29;99854.53;;;1.17;100.00
75157;BME280;63736;50.076;8.198;2024-02-28T04:01:59;99853.72;;;1.15;100.00
75157;BME280;63736;50.076;8.198;2024-02-28T04:03:29;99853.72;;;1.15;100.00
75157;BME280;63736;50.076;8.198;2024-02-28T04:05:00;99852.91;;;1.13;100.00
75157;BME280;63736;50.076;8.198;2024-02-28T04:06:30;99858.22;;;1.11;100.00
75157;BME280;63736;50.076;8.198;2024-02-28T04:08:00;99862.72;;;1.09;100.00
75157;BME280;63736;50.076;8.198;2024-02-28T04:09:31;99875.13;;;1.06;100.00
75157;BME280;63736;50.076;8.198;2024-02-28T04:11:01;99877.00;;;1.02;100.00
75157;BME280;63736;50.076;8.198;2024-02-28T04:12:32;99867.47;;;0.99;100.00
75157;BME280;63736;50.076;8.198;2024-02-28T04:14:03;99870.16;;;0.98;100.00
75157;BME280;63736;50.076;8.198;2024-02-28T04:15:33;99877.19;;;0.97;100.00
75157;BME280;63736;50.076;8.198;2024-02-28T04:17:03;99883.38;;;0.96;100.00
75157;BME280;63736;50.076;8.198;2024-02-28T04:18:34;99878.81;;;1.02;100.00
75157;BME280;63736;50.076;8.198;2024-02-28T04:20:11;99875.88;;;1.09;100.00
75157;BME280;63736;50.076;8.198;2024-02-28T04:21:41;99876.34;;;1.19;100.00
75157;BME280;63736;50.076;8.198;2024-02-28T04:23:12;99877.16;;;1.21;100.00
75157;BME280;63736;50.076;8.198;2024-02-28T04:24:42;99879.50;;;1.29;100.00
75157;BME280;63736;50.076;8.198;2024-02-28T04:26:12;99874.09;;;1.32;100.00
75157;BME280;63736;50.076;8.198;2024-02-28T04:27:43;99884.63;;;1.32;100.00
75157;BME280;63736;50.076;8.198;2024-02-28T04:29:14;99877.56;;;1.32;100.00
75157;BME280;63736;50.076;8.198;2024-02-28T04:30:44;99893.34;;;1.32;100.00
75157;BME280;63736;50.076;8.198;2024-02-28T04:32:14;99890.00;;;1.29;100.00
75157;BME280;63736;50.076;8.198;2024-02-28T04:33:44;99882.16;;;1.27;100.00
75157;BME280;63736;50.076;8.198;2024-02-28T04:35:15;99885.72;;;1.26;100.00
75157;BME280;63736;50.076;8.198;2024-02-28T04:36:48;99889.13;;;1.28;100.00
75157;BME280;63736;50.076;8.198;2024-02-28T04:38:18;99888.38;;;1.26;100.00
75157;BME280;63736;50.076;8.198;2024-02-28T04:39:49;99886.56;;;1.27;100.00
75157;BME280;63736;50.076;8.198;2024-02-28T04:41:19;99886.56;;;1.27;100.00
75157;BME280;63736;50.076;8.198;2024-02-28T04:42:49;99890.84;;;1.29;100.00
75157;BME280;63736;50.076;8.198;2024-02-28T04:44:19;99899.59;;;1.30;100.00
75157;BME280;63736;50.076;8.198;2024-02-28T04:45:50;99881.13;;;1.31;100.00
75157;BME280;63736;50.076;8.198;2024-02-28T04:47:20;99887.31;;;1.30;100.00
75157;BME280;63736;50.076;8.198;2024-02-28T04:48:50;99891.66;;;1.31;100.00
75157;BME280;63736;50.076;8.198;2024-02-28T04:50:21;99897.09;;;1.27;100.00
75157;BME280;63736;50.076;8.198;2024-02-28T04:51:51;99898.81;;;1.28;100.00
75157;BME280;63736;50.076;8.198;2024-02-28T04:53:21;99897.09;;;1.27;100.00
75157;BME280;63736;50.076;8.198;2024-02-28T04:54:51;99899.88;;;1.24;100.00
75157;BME280;63736;50.076;8.198;2024-02-28T04:56:23;99895.56;;;1.21;100.00
75157;BME280;63736;50.076;8.198;2024-02-28T04:57:54;99906.13;;;1.20;100.00
75157;BME280;63736;50.076;8.198;2024-02-28T04:59:24;99911.41;;;1.20;100.00
75157;BME280;63736;50.076;8.198;2024-02-28T05:00:54;99910.50;;;1.21;100.00
75157;BME280;63736;50.076;8.198;2024-02-28T05:02:25;99911.31;;;1.23;100.00
75157;BME280;63736;50.076;8.198;2024-02-28T05:03:56;99918.28;;;1.24;100.00
75157;BME280;63736;50.076;8.198;2024-02-28T05:05:26;99921.75;;;1.24;100.00
75157;BME280;63736;50.076;8.198;2024-02-28T05:06:56;99919.13;;;1.24;100.00
75157;BME280;63736;50.076;8.198;2024-02-28T05:08:26;99921.88;;;1.21;100.00
75157;BME280;63736;50.076;8.198;2024-02-28T05:09:58;99925.38;;;1.22;100.00
75157;BME280;63736;50.076;8.198;2024-02-28T05:11:28;99922.75;;;1.22;100.00
75157;BME280;63736;50.076;8.198;2024-02-28T05:12:59;99928.97;;;1.19;100.00
75157;BME280;63736;50.076;8.198;2024-02-28T05:14:29;99927.31;;;1.17;100.00
75157;BME280;63736;50.076;8.198;2024-02-28T05:15:59;99922.13;;;1.15;100.00
75157;BME280;63736;50.076;8.198;2024-02-28T05:17:30;99924.81;;;1.13;100.00
75157;BME280;63736;50.076;8.198;2024-02-28T05:19:01;99922.28;;;1.10;100.00
75157;BME280;63736;50.076;8.198;2024-02-28T05:20:31;99924.91;;;1.10;100.00
75157;BME280;63736;50.076;8.198;2024-02-28T05:22:01;99922.41;;;1.07;100.00
75157;BME280;63736;50.076;8.198;2024-02-28T05:23:36;99920.69;;;1.06;100.00
75157;BME280;63736;50.076;8.198;2024-02-28T05:25:06;99921.59;;;1.05;100.00
75157;BME280;63736;50.076;8.198;2024-02-28T05:26:37;99924.22;;;1.05;100.00
75157;BME280;63736;50.076;8.198;2024-02-28T05:28:07;99925.22;;;1.03;100.00
75157;BME280;63736;50.076;8.198;2024-02-28T05:29:37;99924.31;;;1.04;100.00
75157;BME280;63736;50.076;8.198;2024-02-28T05:31:24;99926.88;;;1.05;100.00
75157;BME280;63736;50.076;8.198;2024-02-28T05:32:55;99935.63;;;1.06;100.00
75157;BME280;63736;50.076;8.198;2024-02-28T05:34:25;99945.19;;;1.08;100.00
75157;BME280;63736;50.076;8.198;2024-02-28T05:35:55;99946.91;;;1.09;100.00
75157;BME280;63736;50.076;8.198;2024-02-28T05:37:26;99939.69;;;1.14;100.00
75157;BME280;63736;50.076;8.198;2024-02-28T05:38:57;99937.91;;;1.15;100.00
75157;BME280;63736;50.076;8.198;2024-02-28T05:40:28;99942.13;;;1.19;100.00
75157;BME280;63736;50.076;8.198;2024-02-28T05:41:58;99948.06;;;1.24;100.00
75157;BME280;63736;50.076;8.198;2024-02-28T05:43:29;99953.19;;;1.29;100.00
75157;BME280;63736;50.076;8.198;2024-02-28T05:44:59;99953.97;;;1.31;100.00
75157;BME280;63736;50.076;8.198;2024-02-28T05:46:29;99949.50;;;1.33;100.00
75157;BME280;63736;50.076;8.198;2024-02-28T05:48:00;99959.06;;;1.36;100.00
75157;BME280;63736;50.076;8.198;2024-02-28T05:49:31;99947.56;;;1.38;100.00
75157;BME280;63736;50.076;8.198;2024-02-28T05:51:01;99950.13;;;1.40;100.00
75157;BME280;63736;50.076;8.198;2024-02-28T05:52:32;99961.56;;;1.39;100.00
75157;BME280;63736;50.076;8.198;2024-02-28T05:54:02;99950.19;;;1.38;100.00
75157;BME280;63736;50.076;8.198;2024-02-28T05:55:33;99958.91;;;1.39;100.00
75157;BME280;63736;50.076;8.198;2024-02-28T05:57:04;99961.50;;;1.40;100.00
75157;BME280;63736;50.076;8.198;2024-02-28T05:58:34;99959.81;;;1.39;100.00
75157;BME280;63736;50.076;8.198;2024-02-28T06:00:05;99966.88;;;1.37;100.00
75157;BME280;63736;50.076;8.198;2024-02-28T06:01:39;99964.25;;;1.37;100.00
75157;BME280;63736;50.076;8.198;2024-02-28T06:03:10;99972.91;;;1.41;100.00
75157;BME280;63736;50.076;8.198;2024-02-28T06:04:41;99964.94;;;1.42;100.00
75157;BME280;63736;50.076;8.198;2024-02-28T06:06:11;99964.88;;;1.44;100.00
75157;BME280;63736;50.076;8.198;2024-02-28T06:07:41;99962.31;;;1.42;100.00
75157;BME280;63736;50.076;8.198;2024-02-28T06:09:11;99968.41;;;1.43;100.00
75157;BME280;63736;50.076;8.198;2024-02-28T06:10:42;99968.41;;;1.43;100.00
75157;BME280;63736;50.076;8.198;2024-02-28T06:12:16;99964.13;;;1.40;100.00
75157;BME280;63736;50.076;8.198;2024-02-28T06:13:47;99966.72;;;1.42;100.00
75157;BME280;63736;50.076;8.198;2024-02-28T06:15:19;99961.44;;;1.42;100.00
75157;BME280;63736;50.076;8.198;2024-02-28T06:16:50;99969.34;;;1.42;100.00
75157;BME280;63736;50.076;8.198;2024-02-28T06:18:20;99971.09;;;1.41;100.00
75157;BME280;63736;50.076;8.198;2024-02-28T06:19:53;99979.91;;;1.40;100.00
75157;BME280;63736;50.076;8.198;2024-02-28T06:21:23;99989.59;;;1.40;100.00
75157;BME280;63736;50.076;8.198;2024-02-28T06:22:53;99982.63;;;1.39;100.00
75157;BME280;63736;50.076;8.198;2024-02-28T06:24:23;99981.75;;;1.38;100.00
75157;BME280;63736;50.076;8.198;2024-02-28T06:25:54;99987.88;;;1.39;100.00
75157;BME280;63736;50.076;8.198;2024-02-28T06:27:24;99985.31;;;1.37;100.00
75157;BME280;63736;50.076;8.198;2024-02-28T06:28:57;99986.97;;;1.40;100.00
75157;BME280;63736;50.076;8.198;2024-02-28T06:30:31;99991.25;;;1.42;100.00
75157;BME280;63736;50.076;8.198;2024-02-28T06:32:02;99989.31;;;1.47;100.00
75157;BME280;63736;50.076;8.198;2024-02-28T06:33:32;99990.88;;;1.52;100.00
75157;BME280;63736;50.076;8.198;2024-02-28T06:35:03;99995.94;;;1.58;100.00
75157;BME280;63736;50.076;8.198;2024-02-28T06:36:33;99993.91;;;1.64;100.00
75157;BME280;63736;50.076;8.198;2024-02-28T06:38:03;99995.41;;;1.70;100.00
75157;BME280;63736;50.076;8.198;2024-02-28T06:39:34;99996.03;;;1.77;100.00
75157;BME280;63736;50.076;8.198;2024-02-28T06:41:04;99999.31;;;1.84;100.00
75157;BME280;63736;50.076;8.198;2024-02-28T06:42:35;100005.19;;;1.90;100.00
75157;BME280;63736;50.076;8.198;2024-02-28T06:44:06;100006.59;;;1.99;100.00
75157;BME280;63736;50.076;8.198;2024-02-28T06:45:37;100003.63;;;2.07;100.00
75157;BME280;63736;50.076;8.198;2024-02-28T06:47:08;100005.91;;;2.16;100.00
75157;BME280;63736;50.076;8.198;2024-02-28T06:48:39;100010.72;;;2.27;100.00
75157;BME280;63736;50.076;8.198;2024-02-28T06:50:09;100009.78;;;2.28;100.00
75157;BME280;63736;50.076;8.198;2024-02-28T06:51:39;100004.97;;;2.38;100.00
75157;BME280;63736;50.076;8.198;2024-02-28T06:53:10;100016.06;;;2.46;100.00
75157;BME280;63736;50.076;8.198;2024-02-28T06:54:40;100010.31;;;2.57;100.00
75157;BME280;63736;50.076;8.198;2024-02-28T06:56:11;100016.00;;;2.68;100.00
75157;BME280;63736;50.076;8.198;2024-02-28T06:57:41;100017.31;;;2.78;100.00
75157;BME280;63736;50.076;8.198;2024-02-28T06:59:12;100022.13;;;2.89;100.00
75157;BME280;63736;50.076;8.198;2024-02-28T07:00:42;100011.78;;;3.04;100.00
75157;BME280;63736;50.076;8.198;2024-02-28T07:02:13;100012.41;;;3.29;100.00
75157;BME280;63736;50.076;8.198;2024-02-28T07:03:43;100012.81;;;3.58;100.00
75157;BME280;63736;50.076;8.198;2024-02-28T07:05:14;100019.72;;;3.80;100.00
75157;BME280;63736;50.076;8.198;2024-02-28T07:06:44;100017.66;;;4.04;100.00
75157;BME280;63736;50.076;8.198;2024-02-28T07:08:14;100013.19;;;4.24;100.00
75157;BME280;63736;50.076;8.198;2024-02-28T07:09:45;100012.34;;;4.41;100.00
75157;BME280;63736;50.076;8.198;2024-02-28T07:11:15;100010.63;;;4.57;100.00
75157;BME280;63736;50.076;8.198;2024-02-28T07:12:46;100020.50;;;4.71;100.00
75157;BME280;63736;50.076;8.198;2024-02-28T07:14:16;100015.56;;;4.81;100.00
75157;BME280;63736;50.076;8.198;2024-02-28T07:15:47;100025.63;;;4.92;100.00
75157;BME280;63736;50.076;8.198;2024-02-28T07:17:17;100031.88;;;5.07;100.00
75157;BME280;63736;50.076;8.198;2024-02-28T07:18:48;100032.19;;;5.34;100.00
75157;BME280;63736;50.076;8.198;2024-02-28T07:20:18;100031.13;;;5.70;100.00
75157;BME280;63736;50.076;8.198;2024-02-28T07:21:48;100021.47;;;6.01;100.00
75157;BME280;63736;50.076;8.198;2024-02-28T07:23:19;100021.84;;;6.25;100.00
75157;BME280;63736;50.076;8.198;2024-02-28T07:24:49;100022.78;;;6.40;100.00
75157;BME280;63736;50.076;8.198;2024-02-28T07:26:19;100028.16;;;6.39;100.00
75157;BME280;63736;50.076;8.198;2024-02-28T07:27:49;100032.91;;;6.34;100.00
75157;BME280;63736;50.076;8.198;2024-02-28T07:29:20;100032.31;;;6.28;100.00
75157;BME280;63736;50.076;8.198;2024-02-28T07:30:50;100036.94;;;6.25;100.00
75157;BME280;63736;50.076;8.198;2024-02-28T07:32:20;100034.53;;;6.20;100.00
75157;BME280;63736;50.076;8.198;2024-02-28T07:33:50;100036.44;;;6.18;100.00
75157;BME280;63736;50.076;8.198;2024-02-28T07:35:21;100032.75;;;6.21;100.00
75157;BME280;63736;50.076;8.198;2024-02-28T07:36:53;100046.25;;;6.32;100.00
75157;BME280;63736;50.076;8.198;2024-02-28T07:38:24;100043.56;;;6.48;100.00
75157;BME280;63736;50.076;8.198;2024-02-28T07:39:57;100037.44;;;6.62;100.00
75157;BME280;63736;50.076;8.198;2024-02-28T07:41:28;100045.59;;;6.73;100.00
75157;BME280;63736;50.076;8.198;2024-02-28T07:42:59;100043.94;;;6.87;100.00
75157;BME280;63736;50.076;8.198;2024-02-28T07:44:29;100045.25;;;6.94;100.00
75157;BME280;63736;50.076;8.198;2024-02-28T07:46:06;100048.78;;;7.09;100.00
75157;BME280;63736;50.076;8.198;2024-02-28T07:47:37;100050.03;;;7.32;100.00
75157;BME280;63736;50.076;8.198;2024-02-28T07:49:08;100044.69;;;7.61;100.00
75157;BME280;63736;50.076;8.198;2024-02-28T07:50:38;100044.63;;;7.90;100.00
75157;BME280;63736;50.076;8.198;2024-02-28T07:52:11;100040.72;;;8.23;100.00
75157;BME280;63736;50.076;8.198;2024-02-28T07:53:42;100042.44;;;8.51;100.00
75157;BME280;63736;50.076;8.198;2024-02-28T07:55:12;100040.78;;;8.89;100.00
75157;BME280;63736;50.076;8.198;2024-02-28T07:56:43;100048.25;;;9.22;100.00
75157;BME280;63736;50.076;8.198;2024-02-28T07:58:14;100047.88;;;9.66;100.00